Geelong, Australia
Current Conditions -  °F | °C
As of 9:00 PM on Sunday 28 Dec 2014 (Local Time) from YMAV Reporting Station
Clear Clear  
Wind Chill: 68°   Ceiling: Unl
Heat Index: 68°   Visibility: 6mi
Dew Point: 61°   Wind: 15mph
Humidity: 78%   Direction: 210°SSW
Pressure: 29.71"   Gusts: NA
Location:  38.15°S, 144.36°E
Report Text: YMAV 281000Z AUTO 21013KT 9999 // NCD 20/16 Q1006
Loading
Personal Weather Stations






























Interactive Weather Map New forecast layout! Learn more

10-Day Weather Forecast

Advertisements
Track Severe Weather on mobile